sensor_id;sensor_type;location;lat;lon;timestamp;P1;durP1;ratioP1;P2;durP2;ratioP2
60502;SDS011;51448;51.660;5.824;2023-03-05T00:01:29;10.48;;;2.75;;
60502;SDS011;51448;51.660;5.824;2023-03-05T00:04:02;13.60;;;3.25;;
60502;SDS011;51448;51.660;5.824;2023-03-05T00:06:32;12.57;;;2.70;;
60502;SDS011;51448;51.660;5.824;2023-03-05T00:09:00;12.00;;;2.90;;
60502;SDS011;51448;51.660;5.824;2023-03-05T00:11:29;15.48;;;3.10;;
60502;SDS011;51448;51.660;5.824;2023-03-05T00:13:59;17.63;;;3.10;;
60502;SDS011;51448;51.660;5.824;2023-03-05T00:18:57;13.90;;;3.10;;
60502;SDS011;51448;51.660;5.824;2023-03-05T00:21:28;14.10;;;4.00;;
60502;SDS011;51448;51.660;5.824;2023-03-05T00:24:05;15.50;;;4.63;;
60502;SDS011;51448;51.660;5.824;2023-03-05T00:26:38;15.40;;;3.72;;
60502;SDS011;51448;51.660;5.824;2023-03-05T00:29:07;23.27;;;4.65;;
60502;SDS011;51448;51.660;5.824;2023-03-05T00:31:36;16.70;;;3.72;;
60502;SDS011;51448;51.660;5.824;2023-03-05T00:34:06;17.52;;;4.70;;
60502;SDS011;51448;51.660;5.824;2023-03-05T00:36:38;20.55;;;6.57;;
60502;SDS011;51448;51.660;5.824;2023-03-05T00:39:09;25.02;;;7.88;;
60502;SDS011;51448;51.660;5.824;2023-03-05T00:41:39;23.65;;;7.55;;
60502;SDS011;51448;51.660;5.824;2023-03-05T00:44:07;21.48;;;7.80;;
60502;SDS011;51448;51.660;5.824;2023-03-05T00:46:35;20.55;;;7.05;;
60502;SDS011;51448;51.660;5.824;2023-03-05T00:49:03;19.33;;;5.82;;
60502;SDS011;51448;51.660;5.824;2023-03-05T00:51:31;12.93;;;3.88;;
60502;SDS011;51448;51.660;5.824;2023-03-05T00:53:59;14.40;;;3.38;;
60502;SDS011;51448;51.660;5.824;2023-03-05T00:56:26;14.82;;;3.80;;
60502;SDS011;51448;51.660;5.824;2023-03-05T00:58:57;13.35;;;3.38;;
60502;SDS011;51448;51.660;5.824;2023-03-05T01:01:24;15.95;;;3.25;;
60502;SDS011;51448;51.660;5.824;2023-03-05T01:03:52;13.40;;;3.63;;
60502;SDS011;51448;51.660;5.824;2023-03-05T01:06:23;16.90;;;4.00;;
60502;SDS011;51448;51.660;5.824;2023-03-05T01:08:50;18.77;;;3.75;;
60502;SDS011;51448;51.660;5.824;2023-03-05T01:11:18;18.05;;;4.18;;
60502;SDS011;51448;51.660;5.824;2023-03-05T01:13:46;21.02;;;4.07;;
60502;SDS011;51448;51.660;5.824;2023-03-05T01:16:13;14.38;;;3.33;;
60502;SDS011;51448;51.660;5.824;2023-03-05T01:18:41;18.48;;;3.65;;
60502;SDS011;51448;51.660;5.824;2023-03-05T01:21:08;14.85;;;3.33;;
60502;SDS011;51448;51.660;5.824;2023-03-05T01:23:36;17.80;;;4.18;;
60502;SDS011;51448;51.660;5.824;2023-03-05T01:26:04;20.40;;;4.10;;
60502;SDS011;51448;51.660;5.824;2023-03-05T01:28:32;18.00;;;4.13;;
60502;SDS011;51448;51.660;5.824;2023-03-05T01:31:01;14.07;;;3.78;;
60502;SDS011;51448;51.660;5.824;2023-03-05T01:33:32;12.65;;;3.35;;
60502;SDS011;51448;51.660;5.824;2023-03-05T01:36:00;16.30;;;4.18;;
60502;SDS011;51448;51.660;5.824;2023-03-05T01:38:27;16.75;;;3.42;;
60502;SDS011;51448;51.660;5.824;2023-03-05T01:40:55;15.25;;;3.10;;
60502;SDS011;51448;51.660;5.824;2023-03-05T01:43:24;15.93;;;3.70;;
60502;SDS011;51448;51.660;5.824;2023-03-05T01:49:41;15.65;;;3.60;;
60502;SDS011;51448;51.660;5.824;2023-03-05T01:54:40;13.80;;;3.47;;
60502;SDS011;51448;51.660;5.824;2023-03-05T01:57:17;16.08;;;4.20;;
60502;SDS011;51448;51.660;5.824;2023-03-05T01:59:52;10.65;;;3.50;;
60502;SDS011;51448;51.660;5.824;2023-03-05T02:02:27;15.27;;;3.75;;
60502;SDS011;51448;51.660;5.824;2023-03-05T02:05:03;14.25;;;3.60;;
60502;SDS011;51448;51.660;5.824;2023-03-05T02:07:37;15.02;;;3.67;;
60502;SDS011;51448;51.660;5.824;2023-03-05T02:10:18;17.08;;;4.20;;
60502;SDS011;51448;51.660;5.824;2023-03-05T02:12:50;16.40;;;3.67;;
60502;SDS011;51448;51.660;5.824;2023-03-05T02:17:49;17.05;;;4.03;;
60502;SDS011;51448;51.660;5.824;2023-03-05T02:20:19;19.35;;;3.47;;
60502;SDS011;51448;51.660;5.824;2023-03-05T02:22:50;13.90;;;3.90;;
60502;SDS011;51448;51.660;5.824;2023-03-05T02:25:19;16.48;;;4.15;;
60502;SDS011;51448;51.660;5.824;2023-03-05T02:28:13;15.73;;;3.75;;
60502;SDS011;51448;51.660;5.824;2023-03-05T02:30:40;14.73;;;4.22;;
60502;SDS011;51448;51.660;5.824;2023-03-05T02:33:10;18.25;;;3.90;;
60502;SDS011;51448;51.660;5.824;2023-03-05T02:35:40;14.60;;;3.53;;
60502;SDS011;51448;51.660;5.824;2023-03-05T02:38:10;15.95;;;3.47;;
60502;SDS011;51448;51.660;5.824;2023-03-05T02:40:38;16.83;;;3.67;;
60502;SDS011;51448;51.660;5.824;2023-03-05T02:43:06;13.65;;;3.67;;
60502;SDS011;51448;51.660;5.824;2023-03-05T02:45:35;11.95;;;3.42;;
60502;SDS011;51448;51.660;5.824;2023-03-05T02:48:04;14.02;;;3.47;;
60502;SDS011;51448;51.660;5.824;2023-03-05T02:50:33;16.65;;;3.80;;
60502;SDS011;51448;51.660;5.824;2023-03-05T02:53:02;17.33;;;3.80;;
60502;SDS011;51448;51.660;5.824;2023-03-05T02:55:29;11.65;;;3.65;;
60502;SDS011;51448;51.660;5.824;2023-03-05T02:57:59;12.35;;;3.80;;
60502;SDS011;51448;51.660;5.824;2023-03-05T03:00:27;14.88;;;3.53;;
60502;SDS011;51448;51.660;5.824;2023-03-05T03:02:55;12.63;;;3.63;;
60502;SDS011;51448;51.660;5.824;2023-03-05T03:05:23;15.25;;;4.35;;
60502;SDS011;51448;51.660;5.824;2023-03-05T03:07:51;14.60;;;4.40;;
60502;SDS011;51448;51.660;5.824;2023-03-05T03:10:18;14.25;;;3.33;;
60502;SDS011;51448;51.660;5.824;2023-03-05T03:12:46;14.70;;;3.53;;
60502;SDS011;51448;51.660;5.824;2023-03-05T03:15:15;17.95;;;4.40;;
60502;SDS011;51448;51.660;5.824;2023-03-05T03:17:44;14.32;;;3.90;;
60502;SDS011;51448;51.660;5.824;2023-03-05T03:20:13;14.85;;;4.53;;
60502;SDS011;51448;51.660;5.824;2023-03-05T03:22:44;14.30;;;4.20;;
60502;SDS011;51448;51.660;5.824;2023-03-05T03:25:14;14.52;;;4.45;;
60502;SDS011;51448;51.660;5.824;2023-03-05T03:30:12;14.20;;;4.40;;
60502;SDS011;51448;51.660;5.824;2023-03-05T03:32:40;17.65;;;4.40;;
60502;SDS011;51448;51.660;5.824;2023-03-05T03:35:09;17.50;;;5.00;;
60502;SDS011;51448;51.660;5.824;2023-03-05T03:37:38;17.58;;;4.63;;
60502;SDS011;51448;51.660;5.824;2023-03-05T03:40:06;20.52;;;5.15;;
60502;SDS011;51448;51.660;5.824;2023-03-05T03:42:35;20.83;;;5.00;;
60502;SDS011;51448;51.660;5.824;2023-03-05T03:45:03;17.02;;;5.18;;
60502;SDS011;51448;51.660;5.824;2023-03-05T03:47:31;14.40;;;4.20;;
60502;SDS011;51448;51.660;5.824;2023-03-05T03:49:58;15.52;;;4.80;;
60502;SDS011;51448;51.660;5.824;2023-03-05T03:52:26;16.40;;;5.13;;
60502;SDS011;51448;51.660;5.824;2023-03-05T03:54:53;17.48;;;4.85;;
60502;SDS011;51448;51.660;5.824;2023-03-05T03:57:30;14.50;;;5.50;;
60502;SDS011;51448;51.660;5.824;2023-03-05T03:59:59;12.82;;;4.82;;
60502;SDS011;51448;51.660;5.824;2023-03-05T04:02:27;15.15;;;4.82;;
60502;SDS011;51448;51.660;5.824;2023-03-05T04:04:54;17.10;;;5.20;;
60502;SDS011;51448;51.660;5.824;2023-03-05T04:07:22;14.40;;;5.18;;
60502;SDS011;51448;51.660;5.824;2023-03-05T04:09:50;15.98;;;4.97;;
60502;SDS011;51448;51.660;5.824;2023-03-05T04:12:18;16.15;;;4.60;;
60502;SDS011;51448;51.660;5.824;2023-03-05T04:14:46;15.25;;;4.90;;
60502;SDS011;51448;51.660;5.824;2023-03-05T04:17:15;18.00;;;5.32;;
60502;SDS011;51448;51.660;5.824;2023-03-05T04:19:43;13.35;;;4.55;;
60502;SDS011;51448;51.660;5.824;2023-03-05T04:22:15;19.00;;;4.18;;
60502;SDS011;51448;51.660;5.824;2023-03-05T04:24:44;16.45;;;4.28;;
60502;SDS011;51448;51.660;5.824;2023-03-05T04:27:12;16.67;;;4.30;;
60502;SDS011;51448;51.660;5.824;2023-03-05T04:29:39;13.85;;;4.35;;
60502;SDS011;51448;51.660;5.824;2023-03-05T04:32:07;14.50;;;4.47;;
60502;SDS011;51448;51.660;5.824;2023-03-05T04:34:35;14.02;;;4.35;;
60502;SDS011;51448;51.660;5.824;2023-03-05T04:37:04;11.50;;;3.67;;
60502;SDS011;51448;51.660;5.824;2023-03-05T04:39:32;16.10;;;4.43;;
60502;SDS011;51448;51.660;5.824;2023-03-05T04:41:59;15.18;;;3.92;;
60502;SDS011;51448;51.660;5.824;2023-03-05T04:44:27;17.67;;;4.55;;
60502;SDS011;51448;51.660;5.824;2023-03-05T04:46:55;14.40;;;4.22;;
60502;SDS011;51448;51.660;5.824;2023-03-05T04:49:22;13.43;;;3.80;;
60502;SDS011;51448;51.660;5.824;2023-03-05T04:51:50;19.13;;;4.25;;
60502;SDS011;51448;51.660;5.824;2023-03-05T04:54:17;14.70;;;3.95;;
60502;SDS011;51448;51.660;5.824;2023-03-05T04:56:45;15.10;;;3.80;;
60502;SDS011;51448;51.660;5.824;2023-03-05T04:59:12;15.90;;;3.90;;
60502;SDS011;51448;51.660;5.824;2023-03-05T05:01:40;18.73;;;4.32;;
60502;SDS011;51448;51.660;5.824;2023-03-05T05:04:09;14.93;;;3.90;;
60502;SDS011;51448;51.660;5.824;2023-03-05T05:06:36;13.13;;;3.60;;
60502;SDS011;51448;51.660;5.824;2023-03-05T05:09:04;12.75;;;3.85;;
60502;SDS011;51448;51.660;5.824;2023-03-05T05:11:31;16.10;;;4.30;;
60502;SDS011;51448;51.660;5.824;2023-03-05T05:13:59;10.90;;;3.60;;
60502;SDS011;51448;51.660;5.824;2023-03-05T05:16:26;14.82;;;4.25;;
60502;SDS011;51448;51.660;5.824;2023-03-05T05:18:54;13.63;;;3.25;;
60502;SDS011;51448;51.660;5.824;2023-03-05T05:21:21;14.00;;;4.20;;
60502;SDS011;51448;51.660;5.824;2023-03-05T05:23:49;17.60;;;3.97;;
60502;SDS011;51448;51.660;5.824;2023-03-05T05:26:16;14.75;;;3.70;;
60502;SDS011;51448;51.660;5.824;2023-03-05T05:28:44;17.52;;;4.45;;
60502;SDS011;51448;51.660;5.824;2023-03-05T05:31:13;11.02;;;3.65;;
60502;SDS011;51448;51.660;5.824;2023-03-05T05:33:43;12.07;;;3.60;;
60502;SDS011;51448;51.660;5.824;2023-03-05T05:36:14;13.95;;;4.15;;
60502;SDS011;51448;51.660;5.824;2023-03-05T05:38:45;15.27;;;3.83;;
60502;SDS011;51448;51.660;5.824;2023-03-05T05:41:14;15.27;;;3.90;;
60502;SDS011;51448;51.660;5.824;2023-03-05T05:43:44;16.30;;;4.00;;
60502;SDS011;51448;51.660;5.824;2023-03-05T05:46:15;11.75;;;3.75;;
60502;SDS011;51448;51.660;5.824;2023-03-05T05:48:46;12.98;;;4.30;;
60502;SDS011;51448;51.660;5.824;2023-03-05T05:51:18;13.57;;;3.90;;
60502;SDS011;51448;51.660;5.824;2023-03-05T05:53:49;15.02;;;3.92;;
60502;SDS011;51448;51.660;5.824;2023-03-05T05:56:17;18.60;;;4.28;;
60502;SDS011;51448;51.660;5.824;2023-03-05T05:58:46;13.77;;;3.92;;
60502;SDS011;51448;51.660;5.824;2023-03-05T06:01:48;13.15;;;3.63;;
60502;SDS011;51448;51.660;5.824;2023-03-05T06:04:08;14.23;;;4.35;;
60502;SDS011;51448;51.660;5.824;2023-03-05T06:06:36;16.65;;;4.20;;
60502;SDS011;51448;51.660;5.824;2023-03-05T06:09:03;15.10;;;4.35;;
60502;SDS011;51448;51.660;5.824;2023-03-05T06:11:31;16.27;;;4.82;;
60502;SDS011;51448;51.660;5.824;2023-03-05T06:14:00;14.90;;;4.38;;
60502;SDS011;51448;51.660;5.824;2023-03-05T06:16:29;14.93;;;4.82;;
60502;SDS011;51448;51.660;5.824;2023-03-05T06:18:57;14.05;;;4.28;;
60502;SDS011;51448;51.660;5.824;2023-03-05T06:21:26;17.10;;;4.90;;
60502;SDS011;51448;51.660;5.824;2023-03-05T06:23:53;16.45;;;5.38;;
60502;SDS011;51448;51.660;5.824;2023-03-05T06:26:21;16.13;;;5.32;;
60502;SDS011;51448;51.660;5.824;2023-03-05T06:28:49;17.63;;;5.53;;
60502;SDS011;51448;51.660;5.824;2023-03-05T06:31:21;14.63;;;5.88;;
60502;SDS011;51448;51.660;5.824;2023-03-05T06:33:55;17.63;;;5.68;;
60502;SDS011;51448;51.660;5.824;2023-03-05T06:36:29;15.20;;;6.57;;
60502;SDS011;51448;51.660;5.824;2023-03-05T06:38:57;16.58;;;6.65;;
60502;SDS011;51448;51.660;5.824;2023-03-05T06:41:26;16.58;;;7.60;;
60502;SDS011;51448;51.660;5.824;2023-03-05T06:43:58;20.25;;;8.38;;
60502;SDS011;51448;51.660;5.824;2023-03-05T06:46:29;13.77;;;6.78;;
60502;SDS011;51448;51.660;5.824;2023-03-05T06:49:00;20.15;;;7.45;;
60502;SDS011;51448;51.660;5.824;2023-03-05T06:51:31;18.27;;;7.80;;
60502;SDS011;51448;51.660;5.824;2023-03-05T06:54:03;20.30;;;8.25;;
60502;SDS011;51448;51.660;5.824;2023-03-05T06:56:38;17.73;;;8.38;;
60502;SDS011;51448;51.660;5.824;2023-03-05T06:59:07;16.30;;;8.07;;
60502;SDS011;51448;51.660;5.824;2023-03-05T07:01:37;17.42;;;7.97;;
60502;SDS011;51448;51.660;5.824;2023-03-05T07:04:05;12.60;;;7.63;;
60502;SDS011;51448;51.660;5.824;2023-03-05T07:06:34;17.67;;;8.23;;
60502;SDS011;51448;51.660;5.824;2023-03-05T07:09:05;14.23;;;7.80;;
60502;SDS011;51448;51.660;5.824;2023-03-05T07:11:36;13.30;;;7.40;;
60502;SDS011;51448;51.660;5.824;2023-03-05T07:14:04;14.38;;;7.45;;
60502;SDS011;51448;51.660;5.824;2023-03-05T07:16:32;15.23;;;7.90;;
60502;SDS011;51448;51.660;5.824;2023-03-05T07:19:03;15.98;;;7.82;;
60502;SDS011;51448;51.660;5.824;2023-03-05T07:21:33;12.52;;;7.32;;
60502;SDS011;51448;51.660;5.824;2023-03-05T07:24:06;14.50;;;8.55;;
60502;SDS011;51448;51.660;5.824;2023-03-05T07:26:34;16.67;;;8.38;;
60502;SDS011;51448;51.660;5.824;2023-03-05T07:29:02;14.10;;;7.95;;
60502;SDS011;51448;51.660;5.824;2023-03-05T07:31:30;13.57;;;7.68;;
60502;SDS011;51448;51.660;5.824;2023-03-05T07:33:59;14.00;;;8.60;;
60502;SDS011;51448;51.660;5.824;2023-03-05T07:36:29;14.93;;;8.53;;
60502;SDS011;51448;51.660;5.824;2023-03-05T07:38:57;19.02;;;9.20;;
60502;SDS011;51448;51.660;5.824;2023-03-05T07:41:25;13.45;;;8.20;;
60502;SDS011;51448;51.660;5.824;2023-03-05T07:43:53;14.40;;;8.13;;
60502;SDS011;51448;51.660;5.824;2023-03-05T07:46:22;13.50;;;8.18;;
60502;SDS011;51448;51.660;5.824;2023-03-05T07:48:54;14.80;;;8.02;;
60502;SDS011;51448;51.660;5.824;2023-03-05T07:51:23;14.45;;;7.80;;
60502;SDS011;51448;51.660;5.824;2023-03-05T07:53:53;15.03;;;7.60;;
60502;SDS011;51448;51.660;5.824;2023-03-05T07:56:28;14.67;;;8.57;;
60502;SDS011;51448;51.660;5.824;2023-03-05T07:58:58;12.73;;;7.93;;
60502;SDS011;51448;51.660;5.824;2023-03-05T08:01:29;15.40;;;8.57;;
60502;SDS011;51448;51.660;5.824;2023-03-05T08:03:57;13.27;;;7.97;;
60502;SDS011;51448;51.660;5.824;2023-03-05T08:06:25;20.33;;;9.13;;
60502;SDS011;51448;51.660;5.824;2023-03-05T08:08:53;16.98;;;8.48;;
60502;SDS011;51448;51.660;5.824;2023-03-05T08:11:21;13.30;;;7.47;;
60502;SDS011;51448;51.660;5.824;2023-03-05T08:13:49;12.82;;;7.10;;
60502;SDS011;51448;51.660;5.824;2023-03-05T08:16:18;13.90;;;7.60;;
60502;SDS011;51448;51.660;5.824;2023-03-05T08:18:47;12.93;;;7.65;;
60502;SDS011;51448;51.660;5.824;2023-03-05T08:21:16;11.90;;;7.57;;
60502;SDS011;51448;51.660;5.824;2023-03-05T08:23:47;12.32;;;6.82;;
60502;SDS011;51448;51.660;5.824;2023-03-05T08:26:16;11.30;;;6.40;;
60502;SDS011;51448;51.660;5.824;2023-03-05T08:28:47;10.15;;;6.15;;
60502;SDS011;51448;51.660;5.824;2023-03-05T08:31:16;13.25;;;6.15;;
60502;SDS011;51448;51.660;5.824;2023-03-05T08:33:48;10.43;;;5.63;;
60502;SDS011;51448;51.660;5.824;2023-03-05T08:36:19;10.13;;;4.72;;
60502;SDS011;51448;51.660;5.824;2023-03-05T08:38:48;9.27;;;5.45;;
60502;SDS011;51448;51.660;5.824;2023-03-05T08:41:16;11.57;;;5.53;;
60502;SDS011;51448;51.660;5.824;2023-03-05T08:43:45;12.85;;;5.18;;
60502;SDS011;51448;51.660;5.824;2023-03-05T08:46:13;10.27;;;5.35;;
60502;SDS011;51448;51.660;5.824;2023-03-05T08:48:42;10.27;;;5.22;;
60502;SDS011;51448;51.660;5.824;2023-03-05T08:51:12;10.77;;;5.10;;
60502;SDS011;51448;51.660;5.824;2023-03-05T08:53:52;9.63;;;4.97;;
60502;SDS011;51448;51.660;5.824;2023-03-05T08:56:22;12.40;;;5.00;;
60502;SDS011;51448;51.660;5.824;2023-03-05T08:58:51;11.55;;;5.05;;
60502;SDS011;51448;51.660;5.824;2023-03-05T09:01:19;8.75;;;4.68;;
60502;SDS011;51448;51.660;5.824;2023-03-05T09:03:46;10.43;;;5.28;;
60502;SDS011;51448;51.660;5.824;2023-03-05T09:06:14;11.07;;;5.82;;
60502;SDS011;51448;51.660;5.824;2023-03-05T09:08:42;9.70;;;5.30;;
60502;SDS011;51448;51.660;5.824;2023-03-05T09:11:10;10.43;;;5.53;;
60502;SDS011;51448;51.660;5.824;2023-03-05T09:13:39;10.27;;;6.22;;
60502;SDS011;51448;51.660;5.824;2023-03-05T09:16:10;10.73;;;5.93;;
60502;SDS011;51448;51.660;5.824;2023-03-05T09:18:41;9.63;;;5.68;;
60502;SDS011;51448;51.660;5.824;2023-03-05T09:21:11;10.65;;;5.95;;
60502;SDS011;51448;51.660;5.824;2023-03-05T09:23:42;12.13;;;5.95;;
60502;SDS011;51448;51.660;5.824;2023-03-05T09:26:11;9.57;;;5.50;;
60502;SDS011;51448;51.660;5.824;2023-03-05T09:28:41;10.57;;;5.60;;
60502;SDS011;51448;51.660;5.824;2023-03-05T09:31:09;15.68;;;6.25;;
60502;SDS011;51448;51.660;5.824;2023-03-05T09:33:38;10.77;;;5.72;;
60502;SDS011;51448;51.660;5.824;2023-03-05T09:36:16;11.30;;;5.38;;
60502;SDS011;51448;51.660;5.824;2023-03-05T09:38:52;11.45;;;6.40;;
60502;SDS011;51448;51.660;5.824;2023-03-05T09:41:23;9.40;;;6.45;;
60502;SDS011;51448;51.660;5.824;2023-03-05T09:46:56;14.68;;;7.97;;
60502;SDS011;51448;51.660;5.824;2023-03-05T09:55:53;11.88;;;6.75;;
60502;SDS011;51448;51.660;5.824;2023-03-05T10:01:14;11.73;;;7.40;;
60502;SDS011;51448;51.660;5.824;2023-03-05T10:03:50;11.65;;;6.38;;
60502;SDS011;51448;51.660;5.824;2023-03-05T10:06:27;8.70;;;5.18;;
60502;SDS011;51448;51.660;5.824;2023-03-05T10:12:17;10.48;;;4.22;;
60502;SDS011;51448;51.660;5.824;2023-03-05T10:15:00;9.05;;;4.70;;
60502;SDS011;51448;51.660;5.824;2023-03-05T10:20:51;10.75;;;4.28;;
60502;SDS011;51448;51.660;5.824;2023-03-05T10:26:26;9.23;;;5.10;;
60502;SDS011;51448;51.660;5.824;2023-03-05T10:29:21;8.73;;;4.65;;
60502;SDS011;51448;51.660;5.824;2023-03-05T10:35:22;9.18;;;4.85;;
60502;SDS011;51448;51.660;5.824;2023-03-05T10:38:44;6.35;;;3.30;;
60502;SDS011;51448;51.660;5.824;2023-03-05T10:42:01;6.18;;;3.50;;
60502;SDS011;51448;51.660;5.824;2023-03-05T10:44:52;6.50;;;3.10;;
60502;SDS011;51448;51.660;5.824;2023-03-05T10:47:26;8.95;;;3.88;;
60502;SDS011;51448;51.660;5.824;2023-03-05T10:50:17;8.77;;;4.38;;
60502;SDS011;51448;51.660;5.824;2023-03-05T10:52:51;7.07;;;4.90;;
60502;SDS011;51448;51.660;5.824;2023-03-05T10:55:36;7.13;;;4.50;;
60502;SDS011;51448;51.660;5.824;2023-03-05T10:58:09;7.30;;;4.93;;
60502;SDS011;51448;51.660;5.824;2023-03-05T11:00:40;7.63;;;4.50;;
60502;SDS011;51448;51.660;5.824;2023-03-05T11:06:33;7.78;;;4.38;;
60502;SDS011;51448;51.660;5.824;2023-03-05T11:17:40;8.07;;;4.28;;
60502;SDS011;51448;51.660;5.824;2023-03-05T11:20:37;6.32;;;3.58;;
60502;SDS011;51448;51.660;5.824;2023-03-05T11:23:10;7.07;;;3.17;;
60502;SDS011;51448;51.660;5.824;2023-03-05T11:25:51;20.20;;;4.47;;
60502;SDS011;51448;51.660;5.824;2023-03-05T11:28:34;6.72;;;2.60;;
60502;SDS011;51448;51.660;5.824;2023-03-05T11:31:11;8.07;;;3.03;;
60502;SDS011;51448;51.660;5.824;2023-03-05T11:36:34;5.87;;;2.60;;
60502;SDS011;51448;51.660;5.824;2023-03-05T11:44:13;7.63;;;2.60;;
60502;SDS011;51448;51.660;5.824;2023-03-05T11:46:53;5.78;;;2.20;;
60502;SDS011;51448;51.660;5.824;2023-03-05T11:49:29;6.05;;;2.30;;
60502;SDS011;51448;51.660;5.824;2023-03-05T11:52:21;5.35;;;2.10;;
60502;SDS011;51448;51.660;5.824;2023-03-05T11:55:20;4.88;;;1.85;;
60502;SDS011;51448;51.660;5.824;2023-03-05T12:00:57;5.40;;;2.00;;
60502;SDS011;51448;51.660;5.824;2023-03-05T12:03:31;6.03;;;1.83;;
60502;SDS011;51448;51.660;5.824;2023-03-05T12:08:34;5.43;;;1.90;;
60502;SDS011;51448;51.660;5.824;2023-03-05T12:11:28;5.65;;;1.80;;
60502;SDS011;51448;51.660;5.824;2023-03-05T12:14:00;4.63;;;1.70;;
60502;SDS011;51448;51.660;5.824;2023-03-05T12:16:43;6.25;;;1.83;;
60502;SDS011;51448;51.660;5.824;2023-03-05T12:22:45;6.35;;;1.50;;
60502;SDS011;51448;51.660;5.824;2023-03-05T12:27:57;3.58;;;1.50;;
60502;SDS011;51448;51.660;5.824;2023-03-05T12:33:02;4.72;;;1.48;;
60502;SDS011;51448;51.660;5.824;2023-03-05T12:35:36;5.20;;;1.50;;
60502;SDS011;51448;51.660;5.824;2023-03-05T12:38:16;4.97;;;1.33;;
60502;SDS011;51448;51.660;5.824;2023-03-05T12:41:48;5.05;;;1.42;;
60502;SDS011;51448;51.660;5.824;2023-03-05T12:46:34;6.22;;;1.65;;
60502;SDS011;51448;51.660;5.824;2023-03-05T12:51:44;4.90;;;1.20;;
60502;SDS011;51448;51.660;5.824;2023-03-05T12:54:38;6.47;;;1.20;;
60502;SDS011;51448;51.660;5.824;2023-03-05T12:57:14;4.30;;;1.25;;
60502;SDS011;51448;51.660;5.824;2023-03-05T12:59:48;4.18;;;1.40;;
60502;SDS011;51448;51.660;5.824;2023-03-05T13:05:16;4.60;;;1.20;;
60502;SDS011;51448;51.660;5.824;2023-03-05T13:07:52;2.97;;;1.10;;
60502;SDS011;51448;51.660;5.824;2023-03-05T13:13:36;5.03;;;1.38;;
60502;SDS011;51448;51.660;5.824;2023-03-05T13:16:20;5.72;;;1.45;;
60502;SDS011;51448;51.660;5.824;2023-03-05T13:18:58;4.28;;;1.40;;
60502;SDS011;51448;51.660;5.824;2023-03-05T13:21:30;5.65;;;1.40;;
60502;SDS011;51448;51.660;5.824;2023-03-05T13:23:59;4.90;;;1.60;;
60502;SDS011;51448;51.660;5.824;2023-03-05T13:26:35;4.50;;;1.40;;
60502;SDS011;51448;51.660;5.824;2023-03-05T13:29:13;5.68;;;1.42;;
60502;SDS011;51448;51.660;5.824;2023-03-05T13:31:48;6.57;;;1.60;;
60502;SDS011;51448;51.660;5.824;2023-03-05T13:34:23;3.15;;;1.17;;
60502;SDS011;51448;51.660;5.824;2023-03-05T13:39:48;4.45;;;1.38;;
60502;SDS011;51448;51.660;5.824;2023-03-05T13:45:02;2.88;;;1.00;;
60502;SDS011;51448;51.660;5.824;2023-03-05T13:47:53;5.57;;;1.38;;
60502;SDS011;51448;51.660;5.824;2023-03-05T13:50:28;6.30;;;0.90;;
60502;SDS011;51448;51.660;5.824;2023-03-05T13:55:42;5.85;;;1.30;;
60502;SDS011;51448;51.660;5.824;2023-03-05T14:01:24;4.30;;;1.10;;
60502;SDS011;51448;51.660;5.824;2023-03-05T14:06:51;3.90;;;1.50;;
60502;SDS011;51448;51.660;5.824;2023-03-05T14:09:46;5.40;;;1.23;;
60502;SDS011;51448;51.660;5.824;2023-03-05T14:12:29;4.07;;;1.45;;
60502;SDS011;51448;51.660;5.824;2023-03-05T14:15:20;3.42;;;1.30;;
60502;SDS011;51448;51.660;5.824;2023-03-05T14:20:39;3.05;;;1.10;;
60502;SDS011;51448;51.660;5.824;2023-03-05T14:29:31;4.60;;;1.55;;
60502;SDS011;51448;51.660;5.824;2023-03-05T14:32:02;5.55;;;1.30;;
60502;SDS011;51448;51.660;5.824;2023-03-05T14:34:34;4.90;;;1.20;;
60502;SDS011;51448;51.660;5.824;2023-03-05T14:37:16;6.93;;;1.42;;
60502;SDS011;51448;51.660;5.824;2023-03-05T14:42:34;6.00;;;1.85;;
60502;SDS011;51448;51.660;5.824;2023-03-05T14:45:11;3.33;;;1.10;;
60502;SDS011;51448;51.660;5.824;2023-03-05T14:47:42;3.75;;;1.02;;
60502;SDS011;51448;51.660;5.824;2023-03-05T14:50:32;3.38;;;0.93;;
60502;SDS011;51448;51.660;5.824;2023-03-05T14:53:08;2.85;;;0.80;;
60502;SDS011;51448;51.660;5.824;2023-03-05T14:55:43;2.97;;;1.00;;
60502;SDS011;51448;51.660;5.824;2023-03-05T14:58:17;3.40;;;1.00;;
60502;SDS011;51448;51.660;5.824;2023-03-05T15:03:18;3.83;;;1.10;;
60502;SDS011;51448;51.660;5.824;2023-03-05T15:05:48;5.20;;;1.00;;
60502;SDS011;51448;51.660;5.824;2023-03-05T15:08:21;2.53;;;0.82;;
60502;SDS011;51448;51.660;5.824;2023-03-05T15:10:56;2.80;;;0.80;;
60502;SDS011;51448;51.660;5.824;2023-03-05T15:13:25;2.72;;;0.85;;
60502;SDS011;51448;51.660;5.824;2023-03-05T15:15:53;3.75;;;0.82;;
60502;SDS011;51448;51.660;5.824;2023-03-05T15:18:22;2.78;;;0.70;;
60502;SDS011;51448;51.660;5.824;2023-03-05T15:20:50;4.07;;;0.93;;
60502;SDS011;51448;51.660;5.824;2023-03-05T15:23:19;3.88;;;0.77;;
60502;SDS011;51448;51.660;5.824;2023-03-05T15:25:47;4.82;;;0.88;;
60502;SDS011;51448;51.660;5.824;2023-03-05T15:28:14;2.80;;;0.90;;
60502;SDS011;51448;51.660;5.824;2023-03-05T15:30:44;3.17;;;0.90;;
60502;SDS011;51448;51.660;5.824;2023-03-05T15:33:13;3.97;;;1.10;;
60502;SDS011;51448;51.660;5.824;2023-03-05T15:35:43;2.25;;;0.88;;
60502;SDS011;51448;51.660;5.824;2023-03-05T15:38:12;4.57;;;1.10;;
60502;SDS011;51448;51.660;5.824;2023-03-05T15:40:39;3.47;;;0.90;;
60502;SDS011;51448;51.660;5.824;2023-03-05T15:43:07;5.20;;;1.25;;
60502;SDS011;51448;51.660;5.824;2023-03-05T15:45:36;3.63;;;1.00;;
60502;SDS011;51448;51.660;5.824;2023-03-05T15:48:03;3.28;;;1.13;;
60502;SDS011;51448;51.660;5.824;2023-03-05T15:50:31;5.30;;;1.23;;
60502;SDS011;51448;51.660;5.824;2023-03-05T15:53:00;4.88;;;1.20;;
60502;SDS011;51448;51.660;5.824;2023-03-05T15:55:27;5.45;;;1.50;;
60502;SDS011;51448;51.660;5.824;2023-03-05T15:57:55;3.10;;;1.10;;
60502;SDS011;51448;51.660;5.824;2023-03-05T16:00:23;4.55;;;1.30;;
60502;SDS011;51448;51.660;5.824;2023-03-05T16:02:56;4.55;;;1.42;;
60502;SDS011;51448;51.660;5.824;2023-03-05T16:05:24;3.47;;;1.40;;
60502;SDS011;51448;51.660;5.824;2023-03-05T16:07:52;3.58;;;1.33;;
60502;SDS011;51448;51.660;5.824;2023-03-05T16:10:21;2.88;;;1.20;;
60502;SDS011;51448;51.660;5.824;2023-03-05T16:12:54;4.07;;;1.60;;
60502;SDS011;51448;51.660;5.824;2023-03-05T16:15:32;4.78;;;1.50;;
60502;SDS011;51448;51.660;5.824;2023-03-05T16:18:03;5.55;;;1.60;;
60502;SDS011;51448;51.660;5.824;2023-03-05T16:20:35;4.80;;;1.70;;
60502;SDS011;51448;51.660;5.824;2023-03-05T16:23:03;5.43;;;1.83;;
60502;SDS011;51448;51.660;5.824;2023-03-05T16:25:32;5.55;;;1.55;;
60502;SDS011;51448;51.660;5.824;2023-03-05T16:27:59;4.93;;;1.70;;
60502;SDS011;51448;51.660;5.824;2023-03-05T16:30:27;4.38;;;1.70;;
60502;SDS011;51448;51.660;5.824;2023-03-05T16:32:55;5.28;;;1.92;;
60502;SDS011;51448;51.660;5.824;2023-03-05T16:35:23;5.28;;;2.00;;
60502;SDS011;51448;51.660;5.824;2023-03-05T16:37:51;4.68;;;1.88;;
60502;SDS011;51448;51.660;5.824;2023-03-05T16:40:19;5.63;;;2.10;;
60502;SDS011;51448;51.660;5.824;2023-03-05T16:42:47;7.25;;;2.28;;
60502;SDS011;51448;51.660;5.824;2023-03-05T16:45:14;5.13;;;2.00;;
60502;SDS011;51448;51.660;5.824;2023-03-05T16:47:42;6.60;;;2.40;;
60502;SDS011;51448;51.660;5.824;2023-03-05T16:50:10;6.00;;;2.22;;
60502;SDS011;51448;51.660;5.824;2023-03-05T16:52:38;5.97;;;2.50;;
60502;SDS011;51448;51.660;5.824;2023-03-05T16:55:06;5.50;;;2.78;;
60502;SDS011;51448;51.660;5.824;2023-03-05T16:57:34;6.20;;;2.40;;